sensor_id;sensor_type;location;lat;lon;timestamp;P1;durP1;ratioP1;P2;durP2;ratioP2
54641;SDS011;40536;53.194;5.728;2023-05-07T00:00:10;36.33;;;32.30;;
54641;SDS011;40536;53.194;5.728;2023-05-07T00:02:36;36.30;;;32.50;;
54641;SDS011;40536;53.194;5.728;2023-05-07T00:05:03;35.92;;;32.35;;
54641;SDS011;40536;53.194;5.728;2023-05-07T00:07:29;37.10;;;33.22;;
54641;SDS011;40536;53.194;5.728;2023-05-07T00:09:55;35.90;;;32.00;;
54641;SDS011;40536;53.194;5.728;2023-05-07T00:12:21;36.58;;;32.70;;
54641;SDS011;40536;53.194;5.728;2023-05-07T00:14:47;36.65;;;33.10;;
54641;SDS011;40536;53.194;5.728;2023-05-07T00:17:13;38.83;;;34.88;;
54641;SDS011;40536;53.194;5.728;2023-05-07T00:19:39;37.33;;;33.47;;
54641;SDS011;40536;53.194;5.728;2023-05-07T00:22:05;38.78;;;34.88;;
54641;SDS011;40536;53.194;5.728;2023-05-07T00:24:31;43.30;;;38.90;;
54641;SDS011;40536;53.194;5.728;2023-05-07T00:26:57;40.00;;;35.70;;
54641;SDS011;40536;53.194;5.728;2023-05-07T00:29:23;38.17;;;34.22;;
54641;SDS011;40536;53.194;5.728;2023-05-07T00:31:49;37.60;;;33.65;;
54641;SDS011;40536;53.194;5.728;2023-05-07T00:34:16;42.85;;;38.63;;
54641;SDS011;40536;53.194;5.728;2023-05-07T00:36:46;41.78;;;37.95;;
54641;SDS011;40536;53.194;5.728;2023-05-07T00:39:12;45.65;;;41.45;;
54641;SDS011;40536;53.194;5.728;2023-05-07T00:41:38;42.50;;;38.40;;
54641;SDS011;40536;53.194;5.728;2023-05-07T00:44:04;43.10;;;38.75;;
54641;SDS011;40536;53.194;5.728;2023-05-07T00:46:30;49.03;;;44.25;;
54641;SDS011;40536;53.194;5.728;2023-05-07T00:48:57;48.80;;;44.35;;
54641;SDS011;40536;53.194;5.728;2023-05-07T00:51:23;46.63;;;42.50;;
54641;SDS011;40536;53.194;5.728;2023-05-07T00:53:50;47.00;;;42.80;;
54641;SDS011;40536;53.194;5.728;2023-05-07T00:56:16;47.78;;;43.80;;
54641;SDS011;40536;53.194;5.728;2023-05-07T00:58:42;55.42;;;50.70;;
54641;SDS011;40536;53.194;5.728;2023-05-07T01:01:08;56.65;;;52.05;;
54641;SDS011;40536;53.194;5.728;2023-05-07T01:03:34;68.55;;;62.97;;
54641;SDS011;40536;53.194;5.728;2023-05-07T01:06:00;50.67;;;46.53;;
54641;SDS011;40536;53.194;5.728;2023-05-07T01:08:27;56.67;;;51.63;;
54641;SDS011;40536;53.194;5.728;2023-05-07T01:10:55;55.60;;;50.55;;
54641;SDS011;40536;53.194;5.728;2023-05-07T01:13:22;73.20;;;67.38;;
54641;SDS011;40536;53.194;5.728;2023-05-07T01:15:48;55.90;;;51.35;;
54641;SDS011;40536;53.194;5.728;2023-05-07T01:18:14;62.45;;;56.95;;
54641;SDS011;40536;53.194;5.728;2023-05-07T01:20:40;61.35;;;56.17;;
54641;SDS011;40536;53.194;5.728;2023-05-07T01:23:07;57.55;;;52.38;;
54641;SDS011;40536;53.194;5.728;2023-05-07T01:25:33;63.78;;;59.15;;
54641;SDS011;40536;53.194;5.728;2023-05-07T01:27:59;70.63;;;65.07;;
54641;SDS011;40536;53.194;5.728;2023-05-07T01:30:26;53.25;;;48.45;;
54641;SDS011;40536;53.194;5.728;2023-05-07T01:33:08;48.42;;;43.88;;
54641;SDS011;40536;53.194;5.728;2023-05-07T01:35:39;58.67;;;53.73;;
54641;SDS011;40536;53.194;5.728;2023-05-07T01:38:07;54.95;;;50.38;;
54641;SDS011;40536;53.194;5.728;2023-05-07T01:40:33;60.13;;;55.30;;
54641;SDS011;40536;53.194;5.728;2023-05-07T01:43:00;56.92;;;52.15;;
54641;SDS011;40536;53.194;5.728;2023-05-07T01:45:26;62.05;;;56.75;;
54641;SDS011;40536;53.194;5.728;2023-05-07T01:47:52;57.40;;;52.70;;
54641;SDS011;40536;53.194;5.728;2023-05-07T01:50:19;50.88;;;46.45;;
54641;SDS011;40536;53.194;5.728;2023-05-07T01:52:45;63.65;;;58.42;;
54641;SDS011;40536;53.194;5.728;2023-05-07T01:55:11;46.40;;;42.10;;
54641;SDS011;40536;53.194;5.728;2023-05-07T01:57:38;53.00;;;48.00;;
54641;SDS011;40536;53.194;5.728;2023-05-07T02:00:05;61.38;;;56.47;;
54641;SDS011;40536;53.194;5.728;2023-05-07T02:02:31;51.85;;;47.42;;
54641;SDS011;40536;53.194;5.728;2023-05-07T02:04:58;52.75;;;48.10;;
54641;SDS011;40536;53.194;5.728;2023-05-07T02:07:24;50.33;;;45.58;;
54641;SDS011;40536;53.194;5.728;2023-05-07T02:09:50;58.70;;;53.78;;
54641;SDS011;40536;53.194;5.728;2023-05-07T02:12:16;75.30;;;69.43;;
54641;SDS011;40536;53.194;5.728;2023-05-07T02:14:42;60.78;;;55.35;;
54641;SDS011;40536;53.194;5.728;2023-05-07T02:17:08;58.17;;;52.55;;
54641;SDS011;40536;53.194;5.728;2023-05-07T02:19:34;54.92;;;49.83;;
54641;SDS011;40536;53.194;5.728;2023-05-07T02:22:00;100.45;;;92.50;;
54641;SDS011;40536;53.194;5.728;2023-05-07T02:24:26;76.80;;;70.22;;
54641;SDS011;40536;53.194;5.728;2023-05-07T02:26:52;75.38;;;68.97;;
54641;SDS011;40536;53.194;5.728;2023-05-07T02:29:18;87.82;;;81.30;;
54641;SDS011;40536;53.194;5.728;2023-05-07T02:31:44;77.65;;;71.63;;
54641;SDS011;40536;53.194;5.728;2023-05-07T02:34:10;84.05;;;77.50;;
54641;SDS011;40536;53.194;5.728;2023-05-07T02:36:40;93.70;;;85.97;;
54641;SDS011;40536;53.194;5.728;2023-05-07T02:39:06;75.00;;;68.97;;
54641;SDS011;40536;53.194;5.728;2023-05-07T02:41:32;80.72;;;74.28;;
54641;SDS011;40536;53.194;5.728;2023-05-07T02:43:58;104.20;;;97.00;;
54641;SDS011;40536;53.194;5.728;2023-05-07T02:46:24;93.03;;;85.75;;
54641;SDS011;40536;53.194;5.728;2023-05-07T02:48:50;77.22;;;70.53;;
54641;SDS011;40536;53.194;5.728;2023-05-07T02:51:19;77.00;;;70.50;;
54641;SDS011;40536;53.194;5.728;2023-05-07T02:53:45;72.47;;;66.32;;
54641;SDS011;40536;53.194;5.728;2023-05-07T02:56:11;77.63;;;71.00;;
54641;SDS011;40536;53.194;5.728;2023-05-07T02:58:37;77.18;;;70.45;;
54641;SDS011;40536;53.194;5.728;2023-05-07T03:01:10;87.13;;;80.53;;
54641;SDS011;40536;53.194;5.728;2023-05-07T03:03:36;76.90;;;70.57;;
54641;SDS011;40536;53.194;5.728;2023-05-07T03:06:02;75.38;;;69.05;;
54641;SDS011;40536;53.194;5.728;2023-05-07T03:08:28;94.13;;;86.57;;
54641;SDS011;40536;53.194;5.728;2023-05-07T03:10:54;78.65;;;72.07;;
54641;SDS011;40536;53.194;5.728;2023-05-07T03:13:21;114.18;;;105.63;;
54641;SDS011;40536;53.194;5.728;2023-05-07T03:15:47;83.32;;;76.18;;
54641;SDS011;40536;53.194;5.728;2023-05-07T03:18:13;85.72;;;78.45;;
54641;SDS011;40536;53.194;5.728;2023-05-07T03:20:39;82.55;;;74.97;;
54641;SDS011;40536;53.194;5.728;2023-05-07T03:23:05;82.25;;;75.32;;
54641;SDS011;40536;53.194;5.728;2023-05-07T03:25:31;76.40;;;69.55;;
54641;SDS011;40536;53.194;5.728;2023-05-07T03:27:57;85.05;;;77.40;;
54641;SDS011;40536;53.194;5.728;2023-05-07T03:30:23;73.95;;;67.60;;
54641;SDS011;40536;53.194;5.728;2023-05-07T03:32:50;78.80;;;72.35;;
54641;SDS011;40536;53.194;5.728;2023-05-07T03:35:16;66.38;;;59.85;;
54641;SDS011;40536;53.194;5.728;2023-05-07T03:37:44;89.13;;;82.05;;
54641;SDS011;40536;53.194;5.728;2023-05-07T03:40:10;77.10;;;70.63;;
54641;SDS011;40536;53.194;5.728;2023-05-07T03:42:37;64.90;;;59.15;;
54641;SDS011;40536;53.194;5.728;2023-05-07T03:45:03;71.30;;;64.50;;
54641;SDS011;40536;53.194;5.728;2023-05-07T03:47:29;77.38;;;70.90;;
54641;SDS011;40536;53.194;5.728;2023-05-07T03:49:55;65.90;;;59.83;;
54641;SDS011;40536;53.194;5.728;2023-05-07T03:52:21;87.13;;;79.85;;
54641;SDS011;40536;53.194;5.728;2023-05-07T03:54:51;68.30;;;62.08;;
54641;SDS011;40536;53.194;5.728;2023-05-07T03:57:17;82.97;;;75.80;;
54641;SDS011;40536;53.194;5.728;2023-05-07T03:59:43;85.88;;;78.53;;
54641;SDS011;40536;53.194;5.728;2023-05-07T04:02:09;70.65;;;64.30;;
54641;SDS011;40536;53.194;5.728;2023-05-07T04:04:35;79.38;;;72.10;;
54641;SDS011;40536;53.194;5.728;2023-05-07T04:07:01;84.65;;;77.43;;
54641;SDS011;40536;53.194;5.728;2023-05-07T04:09:28;95.45;;;87.40;;
54641;SDS011;40536;53.194;5.728;2023-05-07T04:11:54;83.82;;;75.65;;
54641;SDS011;40536;53.194;5.728;2023-05-07T04:14:20;88.57;;;80.88;;
54641;SDS011;40536;53.194;5.728;2023-05-07T04:16:46;78.32;;;71.13;;
54641;SDS011;40536;53.194;5.728;2023-05-07T04:19:12;98.38;;;90.20;;
54641;SDS011;40536;53.194;5.728;2023-05-07T04:21:38;85.30;;;77.85;;
54641;SDS011;40536;53.194;5.728;2023-05-07T04:24:04;94.72;;;86.60;;
54641;SDS011;40536;53.194;5.728;2023-05-07T04:26:30;100.75;;;93.22;;
54641;SDS011;40536;53.194;5.728;2023-05-07T04:28:56;114.85;;;106.13;;
54641;SDS011;40536;53.194;5.728;2023-05-07T04:31:24;102.18;;;93.47;;
54641;SDS011;40536;53.194;5.728;2023-05-07T04:33:50;115.18;;;106.40;;
54641;SDS011;40536;53.194;5.728;2023-05-07T04:36:18;109.03;;;100.32;;
54641;SDS011;40536;53.194;5.728;2023-05-07T04:38:44;119.13;;;110.25;;
54641;SDS011;40536;53.194;5.728;2023-05-07T04:41:12;96.13;;;88.22;;
54641;SDS011;40536;53.194;5.728;2023-05-07T04:43:38;99.22;;;90.93;;
54641;SDS011;40536;53.194;5.728;2023-05-07T04:46:05;99.82;;;91.32;;
54641;SDS011;40536;53.194;5.728;2023-05-07T04:48:31;102.25;;;93.78;;
54641;SDS011;40536;53.194;5.728;2023-05-07T04:50:57;114.70;;;105.57;;
54641;SDS011;40536;53.194;5.728;2023-05-07T04:53:23;108.60;;;99.70;;
54641;SDS011;40536;53.194;5.728;2023-05-07T04:55:54;108.22;;;99.63;;
54641;SDS011;40536;53.194;5.728;2023-05-07T04:58:20;113.22;;;104.32;;
54641;SDS011;40536;53.194;5.728;2023-05-07T05:00:46;133.43;;;123.97;;
54641;SDS011;40536;53.194;5.728;2023-05-07T05:03:12;121.28;;;111.68;;
54641;SDS011;40536;53.194;5.728;2023-05-07T05:05:38;99.18;;;91.05;;
54641;SDS011;40536;53.194;5.728;2023-05-07T05:08:04;112.72;;;103.63;;
54641;SDS011;40536;53.194;5.728;2023-05-07T05:10:30;128.18;;;118.15;;
54641;SDS011;40536;53.194;5.728;2023-05-07T05:12:56;102.28;;;93.88;;
54641;SDS011;40536;53.194;5.728;2023-05-07T05:15:22;98.53;;;90.00;;
54641;SDS011;40536;53.194;5.728;2023-05-07T05:17:49;83.43;;;76.20;;
54641;SDS011;40536;53.194;5.728;2023-05-07T05:20:15;90.03;;;82.60;;
54641;SDS011;40536;53.194;5.728;2023-05-07T05:22:41;82.30;;;74.75;;
54641;SDS011;40536;53.194;5.728;2023-05-07T05:25:07;79.32;;;71.55;;
54641;SDS011;40536;53.194;5.728;2023-05-07T05:27:34;106.68;;;97.43;;
54641;SDS011;40536;53.194;5.728;2023-05-07T05:30:01;109.93;;;100.68;;
54641;SDS011;40536;53.194;5.728;2023-05-07T05:32:27;93.57;;;85.18;;
54641;SDS011;40536;53.194;5.728;2023-05-07T05:34:53;92.60;;;83.85;;
54641;SDS011;40536;53.194;5.728;2023-05-07T05:37:19;112.28;;;102.68;;
54641;SDS011;40536;53.194;5.728;2023-05-07T05:39:45;106.35;;;96.75;;
54641;SDS011;40536;53.194;5.728;2023-05-07T05:42:11;95.72;;;87.15;;
54641;SDS011;40536;53.194;5.728;2023-05-07T05:44:37;89.03;;;80.30;;
54641;SDS011;40536;53.194;5.728;2023-05-07T05:47:03;100.57;;;91.13;;
54641;SDS011;40536;53.194;5.728;2023-05-07T05:49:30;84.40;;;75.85;;
54641;SDS011;40536;53.194;5.728;2023-05-07T05:51:56;82.28;;;73.43;;
54641;SDS011;40536;53.194;5.728;2023-05-07T05:54:22;111.13;;;101.50;;
54641;SDS011;40536;53.194;5.728;2023-05-07T05:56:48;111.88;;;102.38;;
54641;SDS011;40536;53.194;5.728;2023-05-07T05:59:14;82.78;;;74.55;;
54641;SDS011;40536;53.194;5.728;2023-05-07T06:01:40;87.82;;;79.03;;
54641;SDS011;40536;53.194;5.728;2023-05-07T06:04:06;88.43;;;80.13;;
54641;SDS011;40536;53.194;5.728;2023-05-07T06:06:32;90.30;;;81.25;;
54641;SDS011;40536;53.194;5.728;2023-05-07T06:08:59;88.05;;;79.50;;
54641;SDS011;40536;53.194;5.728;2023-05-07T06:11:25;101.13;;;92.28;;
54641;SDS011;40536;53.194;5.728;2023-05-07T06:13:51;84.38;;;76.22;;
54641;SDS011;40536;53.194;5.728;2023-05-07T06:16:17;94.32;;;85.00;;
54641;SDS011;40536;53.194;5.728;2023-05-07T06:18:43;100.22;;;90.93;;
54641;SDS011;40536;53.194;5.728;2023-05-07T06:21:11;79.35;;;71.40;;
54641;SDS011;40536;53.194;5.728;2023-05-07T06:23:37;95.25;;;86.55;;
54641;SDS011;40536;53.194;5.728;2023-05-07T06:26:03;89.47;;;81.00;;
54641;SDS011;40536;53.194;5.728;2023-05-07T06:28:29;64.20;;;57.50;;
54641;SDS011;40536;53.194;5.728;2023-05-07T06:31:16;76.65;;;69.07;;
54641;SDS011;40536;53.194;5.728;2023-05-07T06:33:45;79.60;;;71.05;;
54641;SDS011;40536;53.194;5.728;2023-05-07T06:36:12;78.80;;;71.38;;
54641;SDS011;40536;53.194;5.728;2023-05-07T06:38:38;68.57;;;61.40;;
54641;SDS011;40536;53.194;5.728;2023-05-07T06:41:05;62.65;;;51.22;;
54641;SDS011;40536;53.194;5.728;2023-05-07T06:43:32;63.47;;;50.08;;
54641;SDS011;40536;53.194;5.728;2023-05-07T06:45:58;63.70;;;56.97;;
54641;SDS011;40536;53.194;5.728;2023-05-07T06:48:24;58.15;;;46.75;;
54641;SDS011;40536;53.194;5.728;2023-05-07T06:50:50;72.13;;;65.35;;
54641;SDS011;40536;53.194;5.728;2023-05-07T06:53:16;99.35;;;91.43;;
54641;SDS011;40536;53.194;5.728;2023-05-07T06:55:42;79.20;;;72.22;;
54641;SDS011;40536;53.194;5.728;2023-05-07T06:58:08;84.10;;;77.10;;
54641;SDS011;40536;53.194;5.728;2023-05-07T07:00:34;68.25;;;61.58;;
54641;SDS011;40536;53.194;5.728;2023-05-07T07:03:00;59.03;;;53.05;;
54641;SDS011;40536;53.194;5.728;2023-05-07T07:05:26;57.83;;;52.00;;
54641;SDS011;40536;53.194;5.728;2023-05-07T07:07:52;63.13;;;56.97;;
54641;SDS011;40536;53.194;5.728;2023-05-07T07:10:19;51.15;;;45.53;;
54641;SDS011;40536;53.194;5.728;2023-05-07T07:12:45;51.08;;;42.25;;
54641;SDS011;40536;53.194;5.728;2023-05-07T07:15:11;45.75;;;40.10;;
54641;SDS011;40536;53.194;5.728;2023-05-07T07:17:37;52.33;;;46.78;;
54641;SDS011;40536;53.194;5.728;2023-05-07T07:20:03;46.58;;;36.90;;
54641;SDS011;40536;53.194;5.728;2023-05-07T07:22:30;45.47;;;40.85;;
54641;SDS011;40536;53.194;5.728;2023-05-07T07:24:56;46.63;;;41.55;;
54641;SDS011;40536;53.194;5.728;2023-05-07T07:27:22;51.58;;;46.25;;
54641;SDS011;40536;53.194;5.728;2023-05-07T07:29:48;46.00;;;41.03;;
54641;SDS011;40536;53.194;5.728;2023-05-07T07:32:14;50.78;;;45.60;;
54641;SDS011;40536;53.194;5.728;2023-05-07T07:34:40;54.92;;;49.63;;
54641;SDS011;40536;53.194;5.728;2023-05-07T07:37:07;52.60;;;47.53;;
54641;SDS011;40536;53.194;5.728;2023-05-07T07:39:33;49.60;;;44.25;;
54641;SDS011;40536;53.194;5.728;2023-05-07T07:41:59;46.03;;;41.28;;
54641;SDS011;40536;53.194;5.728;2023-05-07T07:44:26;53.80;;;48.75;;
54641;SDS011;40536;53.194;5.728;2023-05-07T07:46:53;44.13;;;39.50;;
54641;SDS011;40536;53.194;5.728;2023-05-07T07:49:19;45.70;;;41.25;;
54641;SDS011;40536;53.194;5.728;2023-05-07T07:51:45;45.30;;;40.65;;
54641;SDS011;40536;53.194;5.728;2023-05-07T07:54:11;49.95;;;45.13;;
54641;SDS011;40536;53.194;5.728;2023-05-07T07:56:37;44.38;;;40.08;;
54641;SDS011;40536;53.194;5.728;2023-05-07T07:59:03;46.97;;;42.38;;
54641;SDS011;40536;53.194;5.728;2023-05-07T08:01:30;44.13;;;39.70;;
54641;SDS011;40536;53.194;5.728;2023-05-07T08:03:56;54.05;;;49.20;;
54641;SDS011;40536;53.194;5.728;2023-05-07T08:06:25;40.83;;;36.83;;
54641;SDS011;40536;53.194;5.728;2023-05-07T08:08:51;44.75;;;39.53;;
54641;SDS011;40536;53.194;5.728;2023-05-07T08:11:17;46.75;;;42.65;;
54641;SDS011;40536;53.194;5.728;2023-05-07T08:13:43;49.13;;;44.83;;
54641;SDS011;40536;53.194;5.728;2023-05-07T08:16:10;42.50;;;38.53;;
54641;SDS011;40536;53.194;5.728;2023-05-07T08:18:36;39.35;;;35.45;;
54641;SDS011;40536;53.194;5.728;2023-05-07T08:21:02;39.33;;;35.67;;
54641;SDS011;40536;53.194;5.728;2023-05-07T08:23:28;44.03;;;40.00;;
54641;SDS011;40536;53.194;5.728;2023-05-07T08:25:55;41.85;;;37.60;;
54641;SDS011;40536;53.194;5.728;2023-05-07T08:28:21;40.05;;;36.28;;
54641;SDS011;40536;53.194;5.728;2023-05-07T08:30:49;42.20;;;38.38;;
54641;SDS011;40536;53.194;5.728;2023-05-07T08:33:15;52.40;;;47.80;;
54641;SDS011;40536;53.194;5.728;2023-05-07T08:35:42;41.38;;;37.47;;
54641;SDS011;40536;53.194;5.728;2023-05-07T08:38:08;45.42;;;41.30;;
54641;SDS011;40536;53.194;5.728;2023-05-07T08:40:38;55.80;;;51.30;;
54641;SDS011;40536;53.194;5.728;2023-05-07T08:43:07;46.85;;;42.80;;
54641;SDS011;40536;53.194;5.728;2023-05-07T08:45:33;56.92;;;52.55;;
54641;SDS011;40536;53.194;5.728;2023-05-07T08:48:05;62.25;;;57.55;;
54641;SDS011;40536;53.194;5.728;2023-05-07T08:50:37;71.60;;;66.80;;
54641;SDS011;40536;53.194;5.728;2023-05-07T08:53:04;98.90;;;92.70;;
54641;SDS011;40536;53.194;5.728;2023-05-07T08:55:30;121.10;;;114.50;;
54641;SDS011;40536;53.194;5.728;2023-05-07T08:57:56;126.45;;;119.25;;
54641;SDS011;40536;53.194;5.728;2023-05-07T09:00:22;141.68;;;133.95;;
54641;SDS011;40536;53.194;5.728;2023-05-07T09:02:48;111.00;;;104.22;;
54641;SDS011;40536;53.194;5.728;2023-05-07T09:05:14;105.18;;;98.90;;
54641;SDS011;40536;53.194;5.728;2023-05-07T09:07:41;89.03;;;83.55;;
54641;SDS011;40536;53.194;5.728;2023-05-07T09:10:07;74.65;;;69.38;;
54641;SDS011;40536;53.194;5.728;2023-05-07T09:12:33;45.75;;;42.25;;
54641;SDS011;40536;53.194;5.728;2023-05-07T09:15:01;50.25;;;46.40;;
54641;SDS011;40536;53.194;5.728;2023-05-07T09:17:28;40.22;;;36.80;;
54641;SDS011;40536;53.194;5.728;2023-05-07T09:19:54;43.70;;;39.90;;
54641;SDS011;40536;53.194;5.728;2023-05-07T09:22:20;45.85;;;41.42;;
54641;SDS011;40536;53.194;5.728;2023-05-07T09:24:47;43.80;;;40.10;;
54641;SDS011;40536;53.194;5.728;2023-05-07T09:27:13;45.35;;;41.65;;
54641;SDS011;40536;53.194;5.728;2023-05-07T09:29:39;36.78;;;33.58;;
54641;SDS011;40536;53.194;5.728;2023-05-07T09:32:06;38.25;;;35.03;;
54641;SDS011;40536;53.194;5.728;2023-05-07T09:34:32;36.90;;;33.65;;
54641;SDS011;40536;53.194;5.728;2023-05-07T09:37:00;38.60;;;35.20;;
54641;SDS011;40536;53.194;5.728;2023-05-07T09:39:26;44.97;;;41.00;;
54641;SDS011;40536;53.194;5.728;2023-05-07T09:41:52;40.53;;;36.92;;
54641;SDS011;40536;53.194;5.728;2023-05-07T09:44:20;51.20;;;47.30;;
54641;SDS011;40536;53.194;5.728;2023-05-07T09:46:47;45.33;;;41.60;;
54641;SDS011;40536;53.194;5.728;2023-05-07T09:49:21;45.38;;;41.80;;
54641;SDS011;40536;53.194;5.728;2023-05-07T09:51:48;47.63;;;43.83;;
54641;SDS011;40536;53.194;5.728;2023-05-07T09:54:15;44.25;;;40.70;;
54641;SDS011;40536;53.194;5.728;2023-05-07T09:56:42;45.78;;;41.97;;
54641;SDS011;40536;53.194;5.728;2023-05-07T09:59:09;42.30;;;38.80;;
54641;SDS011;40536;53.194;5.728;2023-05-07T10:01:36;42.58;;;39.20;;
54641;SDS011;40536;53.194;5.728;2023-05-07T10:04:02;34.53;;;31.50;;
54641;SDS011;40536;53.194;5.728;2023-05-07T10:06:29;32.15;;;29.23;;
54641;SDS011;40536;53.194;5.728;2023-05-07T10:08:55;28.30;;;25.40;;
54641;SDS011;40536;53.194;5.728;2023-05-07T10:11:22;30.98;;;28.05;;
54641;SDS011;40536;53.194;5.728;2023-05-07T10:13:48;30.13;;;26.92;;
54641;SDS011;40536;53.194;5.728;2023-05-07T10:16:14;30.63;;;27.58;;
54641;SDS011;40536;53.194;5.728;2023-05-07T10:18:41;30.75;;;27.55;;
54641;SDS011;40536;53.194;5.728;2023-05-07T10:21:08;34.42;;;31.35;;
54641;SDS011;40536;53.194;5.728;2023-05-07T10:23:34;31.50;;;28.38;;
54641;SDS011;40536;53.194;5.728;2023-05-07T10:26:02;35.35;;;31.98;;
54641;SDS011;40536;53.194;5.728;2023-05-07T10:28:29;33.63;;;30.63;;
54641;SDS011;40536;53.194;5.728;2023-05-07T10:33:42;42.55;;;39.20;;
54641;SDS011;40536;53.194;5.728;2023-05-07T10:36:13;36.00;;;32.85;;
54641;SDS011;40536;53.194;5.728;2023-05-07T10:38:39;45.35;;;41.90;;
54641;SDS011;40536;53.194;5.728;2023-05-07T10:41:05;37.85;;;34.80;;
54641;SDS011;40536;53.194;5.728;2023-05-07T10:43:39;37.67;;;34.58;;
54641;SDS011;40536;53.194;5.728;2023-05-07T10:46:24;31.45;;;28.70;;
54641;SDS011;40536;53.194;5.728;2023-05-07T10:51:29;43.30;;;39.78;;
54641;SDS011;40536;53.194;5.728;2023-05-07T10:56:41;41.75;;;38.28;;
54641;SDS011;40536;53.194;5.728;2023-05-07T11:04:22;36.83;;;33.67;;
54641;SDS011;40536;53.194;5.728;2023-05-07T11:15:11;34.55;;;31.45;;
54641;SDS011;40536;53.194;5.728;2023-05-07T11:23:12;41.55;;;38.22;;
54641;SDS011;40536;53.194;5.728;2023-05-07T11:25:59;41.90;;;38.47;;
54641;SDS011;40536;53.194;5.728;2023-05-07T11:28:26;40.58;;;37.45;;
54641;SDS011;40536;53.194;5.728;2023-05-07T11:30:53;27.70;;;24.90;;
54641;SDS011;40536;53.194;5.728;2023-05-07T11:33:19;44.13;;;40.78;;
54641;SDS011;40536;53.194;5.728;2023-05-07T11:35:45;35.35;;;32.30;;
54641;SDS011;40536;53.194;5.728;2023-05-07T11:38:12;41.88;;;38.22;;
54641;SDS011;40536;53.194;5.728;2023-05-07T11:40:51;26.70;;;23.92;;
54641;SDS011;40536;53.194;5.728;2023-05-07T11:43:17;34.28;;;31.13;;
54641;SDS011;40536;53.194;5.728;2023-05-07T11:45:47;37.72;;;34.47;;
54641;SDS011;40536;53.194;5.728;2023-05-07T11:48:13;38.92;;;35.92;;
54641;SDS011;40536;53.194;5.728;2023-05-07T11:50:53;44.40;;;41.08;;
54641;SDS011;40536;53.194;5.728;2023-05-07T11:53:19;38.10;;;34.85;;
54641;SDS011;40536;53.194;5.728;2023-05-07T11:55:46;39.25;;;35.95;;
54641;SDS011;40536;53.194;5.728;2023-05-07T11:58:12;47.00;;;43.50;;
54641;SDS011;40536;53.194;5.728;2023-05-07T12:00:49;57.58;;;53.63;;
54641;SDS011;40536;53.194;5.728;2023-05-07T12:03:15;31.55;;;28.65;;
54641;SDS011;40536;53.194;5.728;2023-05-07T12:05:42;45.88;;;42.30;;
54641;SDS011;40536;53.194;5.728;2023-05-07T12:08:08;33.45;;;30.23;;
54641;SDS011;40536;53.194;5.728;2023-05-07T12:10:40;42.78;;;39.58;;
54641;SDS011;40536;53.194;5.728;2023-05-07T12:13:28;49.50;;;45.22;;
54641;SDS011;40536;53.194;5.728;2023-05-07T12:15:53;53.17;;;49.45;;
54641;SDS011;40536;53.194;5.728;2023-05-07T12:18:19;53.38;;;49.75;;
54641;SDS011;40536;53.194;5.728;2023-05-07T12:20:46;61.03;;;57.00;;
54641;SDS011;40536;53.194;5.728;2023-05-07T12:23:12;48.65;;;45.15;;
54641;SDS011;40536;53.194;5.728;2023-05-07T12:25:39;47.75;;;44.08;;
54641;SDS011;40536;53.194;5.728;2023-05-07T12:28:08;45.22;;;41.80;;
54641;SDS011;40536;53.194;5.728;2023-05-07T12:30:38;58.33;;;54.28;;
54641;SDS011;40536;53.194;5.728;2023-05-07T12:33:04;66.95;;;62.85;;
54641;SDS011;40536;53.194;5.728;2023-05-07T12:35:31;44.17;;;40.58;;
54641;SDS011;40536;53.194;5.728;2023-05-07T12:38:00;54.15;;;50.40;;
54641;SDS011;40536;53.194;5.728;2023-05-07T12:40:36;50.33;;;46.80;;
54641;SDS011;40536;53.194;5.728;2023-05-07T12:43:03;77.28;;;72.53;;
54641;SDS011;40536;53.194;5.728;2023-05-07T12:45:29;65.05;;;60.97;;
54641;SDS011;40536;53.194;5.728;2023-05-07T12:47:55;81.00;;;75.43;;
54641;SDS011;40536;53.194;5.728;2023-05-07T12:50:22;71.05;;;66.55;;
54641;SDS011;40536;53.194;5.728;2023-05-07T12:52:48;91.15;;;85.97;;
54641;SDS011;40536;53.194;5.728;2023-05-07T12:55:15;72.90;;;68.07;;
54641;SDS011;40536;53.194;5.728;2023-05-07T12:57:42;47.28;;;43.95;;
54641;SDS011;40536;53.194;5.728;2023-05-07T13:00:08;68.15;;;63.92;;
54641;SDS011;40536;53.194;5.728;2023-05-07T13:02:38;68.18;;;64.00;;
54641;SDS011;40536;53.194;5.728;2023-05-07T13:05:05;50.72;;;47.30;;
54641;SDS011;40536;53.194;5.728;2023-05-07T13:07:31;52.72;;;49.22;;
54641;SDS011;40536;53.194;5.728;2023-05-07T13:09:57;55.55;;;51.95;;
54641;SDS011;40536;53.194;5.728;2023-05-07T13:12:23;47.67;;;44.28;;
54641;SDS011;40536;53.194;5.728;2023-05-07T13:14:49;47.58;;;44.33;;
54641;SDS011;40536;53.194;5.728;2023-05-07T13:17:15;65.13;;;61.17;;
54641;SDS011;40536;53.194;5.728;2023-05-07T13:19:43;50.67;;;47.08;;
54641;SDS011;40536;53.194;5.728;2023-05-07T13:22:09;58.72;;;54.95;;
54641;SDS011;40536;53.194;5.728;2023-05-07T13:24:36;66.57;;;62.08;;
54641;SDS011;40536;53.194;5.728;2023-05-07T13:27:02;54.13;;;50.78;;
54641;SDS011;40536;53.194;5.728;2023-05-07T13:29:28;65.18;;;61.22;;
54641;SDS011;40536;53.194;5.728;2023-05-07T13:31:58;64.32;;;60.33;;
54641;SDS011;40536;53.194;5.728;2023-05-07T13:34:24;62.33;;;58.42;;
54641;SDS011;40536;53.194;5.728;2023-05-07T13:36:51;66.78;;;62.63;;
54641;SDS011;40536;53.194;5.728;2023-05-07T13:39:17;91.60;;;86.50;;
54641;SDS011;40536;53.194;5.728;2023-05-07T13:41:45;57.03;;;53.47;;
54641;SDS011;40536;53.194;5.728;2023-05-07T13:44:12;72.25;;;67.55;;
54641;SDS011;40536;53.194;5.728;2023-05-07T13:46:38;62.53;;;58.70;;
54641;SDS011;40536;53.194;5.728;2023-05-07T13:49:04;75.47;;;71.07;;
54641;SDS011;40536;53.194;5.728;2023-05-07T13:51:31;63.72;;;59.85;;
54641;SDS011;40536;53.194;5.728;2023-05-07T13:53:57;73.93;;;69.63;;
54641;SDS011;40536;53.194;5.728;2023-05-07T13:56:23;74.22;;;70.03;;
54641;SDS011;40536;53.194;5.728;2023-05-07T13:58:49;79.05;;;74.72;;
54641;SDS011;40536;53.194;5.728;2023-05-07T14:01:15;86.85;;;81.70;;
54641;SDS011;40536;53.194;5.728;2023-05-07T14:03:41;94.93;;;89.55;;
54641;SDS011;40536;53.194;5.728;2023-05-07T14:06:07;54.95;;;51.67;;
54641;SDS011;40536;53.194;5.728;2023-05-07T14:08:33;49.53;;;46.45;;
54641;SDS011;40536;53.194;5.728;2023-05-07T14:10:59;64.40;;;60.75;;
54641;SDS011;40536;53.194;5.728;2023-05-07T14:13:25;47.20;;;43.60;;
54641;SDS011;40536;53.194;5.728;2023-05-07T14:15:52;59.97;;;56.15;;
54641;SDS011;40536;53.194;5.728;2023-05-07T14:18:18;59.40;;;55.85;;
54641;SDS011;40536;53.194;5.728;2023-05-07T14:20:44;106.80;;;101.05;;
54641;SDS011;40536;53.194;5.728;2023-05-07T14:23:11;70.72;;;66.57;;
54641;SDS011;40536;53.194;5.728;2023-05-07T14:25:37;72.45;;;68.18;;
54641;SDS011;40536;53.194;5.728;2023-05-07T14:28:04;73.55;;;69.38;;
54641;SDS011;40536;53.194;5.728;2023-05-07T14:30:30;51.25;;;47.75;;
54641;SDS011;40536;53.194;5.728;2023-05-07T14:32:56;78.88;;;74.40;;
54641;SDS011;40536;53.194;5.728;2023-05-07T14:35:22;78.38;;;72.72;;
54641;SDS011;40536;53.194;5.728;2023-05-07T14:37:48;90.43;;;85.35;;
54641;SDS011;40536;53.194;5.728;2023-05-07T14:40:14;84.25;;;79.63;;
54641;SDS011;40536;53.194;5.728;2023-05-07T14:42:40;100.10;;;94.90;;